Salaberry-De-Valleyfield, Canada
Current Conditions -  °F | °C
As of 3:00 PM on Saturday 20 Dec 2014 (Local Time) from CYUL Reporting Station
Few Clouds Few Clouds  
Wind Chill:   Ceiling: Unl
Heat Index: 18°   Visibility: 12mi
Dew Point: 10°   Wind: 6mph
Humidity: 73%   Direction: 360°N
Pressure: 30.34"   Gusts: NA
Location:  45.25°N, 74.13°W
Report Text: CYUL 202000Z 36005KT 12SM FEW240 M08/M12 A3034 RMK CI2 SLP277
Loading
Personal Weather Stations






























Interactive Weather Map New forecast layout! Learn more

10-Day Weather Forecast

Advertisements
Track Severe Weather on mobile